sensor_id;sensor_type;location;lat;lon;timestamp;P1;durP1;ratioP1;P2;durP2;ratioP2
32501;SDS011;18952;52.516;13.460;2022-11-03T00:00:04;21.58;;;8.88;;
32501;SDS011;18952;52.516;13.460;2022-11-03T00:02:37;21.42;;;9.82;;
32501;SDS011;18952;52.516;13.460;2022-11-03T00:05:04;18.88;;;8.57;;
32501;SDS011;18952;52.516;13.460;2022-11-03T00:07:31;16.20;;;8.40;;
32501;SDS011;18952;52.516;13.460;2022-11-03T00:09:58;20.63;;;9.15;;
32501;SDS011;18952;52.516;13.460;2022-11-03T00:12:25;15.93;;;8.23;;
32501;SDS011;18952;52.516;13.460;2022-11-03T00:14:51;24.52;;;9.38;;
32501;SDS011;18952;52.516;13.460;2022-11-03T00:17:18;24.52;;;9.13;;
32501;SDS011;18952;52.516;13.460;2022-11-03T00:19:45;25.15;;;9.57;;
32501;SDS011;18952;52.516;13.460;2022-11-03T00:22:11;24.70;;;9.13;;
32501;SDS011;18952;52.516;13.460;2022-11-03T00:24:38;18.08;;;8.60;;
32501;SDS011;18952;52.516;13.460;2022-11-03T00:27:05;23.60;;;8.90;;
32501;SDS011;18952;52.516;13.460;2022-11-03T00:29:31;19.63;;;8.82;;
32501;SDS011;18952;52.516;13.460;2022-11-03T00:31:58;18.45;;;8.27;;
32501;SDS011;18952;52.516;13.460;2022-11-03T00:34:25;20.70;;;8.18;;
32501;SDS011;18952;52.516;13.460;2022-11-03T00:36:51;18.67;;;8.30;;
32501;SDS011;18952;52.516;13.460;2022-11-03T00:39:18;18.33;;;8.77;;
32501;SDS011;18952;52.516;13.460;2022-11-03T00:41:45;21.05;;;8.48;;
32501;SDS011;18952;52.516;13.460;2022-11-03T00:44:11;15.55;;;8.63;;
32501;SDS011;18952;52.516;13.460;2022-11-03T00:46:38;23.63;;;8.77;;
32501;SDS011;18952;52.516;13.460;2022-11-03T00:49:05;16.13;;;8.57;;
32501;SDS011;18952;52.516;13.460;2022-11-03T00:51:32;18.10;;;9.15;;
32501;SDS011;18952;52.516;13.460;2022-11-03T00:53:59;20.60;;;9.23;;
32501;SDS011;18952;52.516;13.460;2022-11-03T00:56:28;19.55;;;8.73;;
32501;SDS011;18952;52.516;13.460;2022-11-03T00:58:57;19.55;;;9.30;;
32501;SDS011;18952;52.516;13.460;2022-11-03T01:01:25;21.50;;;8.93;;
32501;SDS011;18952;52.516;13.460;2022-11-03T01:03:55;19.67;;;8.98;;
32501;SDS011;18952;52.516;13.460;2022-11-03T01:06:23;17.02;;;9.02;;
32501;SDS011;18952;52.516;13.460;2022-11-03T01:08:49;19.02;;;8.52;;
32501;SDS011;18952;52.516;13.460;2022-11-03T01:11:18;22.67;;;8.90;;
32501;SDS011;18952;52.516;13.460;2022-11-03T01:13:46;17.75;;;8.60;;
32501;SDS011;18952;52.516;13.460;2022-11-03T01:16:13;20.98;;;8.43;;
32501;SDS011;18952;52.516;13.460;2022-11-03T01:18:39;21.38;;;9.40;;
32501;SDS011;18952;52.516;13.460;2022-11-03T01:21:06;20.40;;;8.73;;
32501;SDS011;18952;52.516;13.460;2022-11-03T01:23:36;20.52;;;8.55;;
32501;SDS011;18952;52.516;13.460;2022-11-03T01:26:06;19.90;;;8.52;;
32501;SDS011;18952;52.516;13.460;2022-11-03T01:28:36;21.13;;;8.15;;
32501;SDS011;18952;52.516;13.460;2022-11-03T01:31:04;18.95;;;8.35;;
32501;SDS011;18952;52.516;13.460;2022-11-03T01:33:32;21.00;;;8.48;;
32501;SDS011;18952;52.516;13.460;2022-11-03T01:35:59;20.45;;;8.18;;
32501;SDS011;18952;52.516;13.460;2022-11-03T01:38:27;20.02;;;7.88;;
32501;SDS011;18952;52.516;13.460;2022-11-03T01:40:57;19.58;;;7.03;;
32501;SDS011;18952;52.516;13.460;2022-11-03T01:43:24;15.60;;;6.97;;
32501;SDS011;18952;52.516;13.460;2022-11-03T01:48:33;18.98;;;8.15;;
32501;SDS011;18952;52.516;13.460;2022-11-03T01:51:00;16.45;;;6.20;;
32501;SDS011;18952;52.516;13.460;2022-11-03T01:53:30;17.15;;;6.63;;
32501;SDS011;18952;52.516;13.460;2022-11-03T01:55:57;25.48;;;7.20;;
32501;SDS011;18952;52.516;13.460;2022-11-03T01:58:27;19.17;;;6.38;;
32501;SDS011;18952;52.516;13.460;2022-11-03T02:00:56;17.10;;;6.03;;
32501;SDS011;18952;52.516;13.460;2022-11-03T02:03:25;13.35;;;6.25;;
32501;SDS011;18952;52.516;13.460;2022-11-03T02:05:53;19.95;;;6.05;;
32501;SDS011;18952;52.516;13.460;2022-11-03T02:08:22;20.88;;;6.30;;
32501;SDS011;18952;52.516;13.460;2022-11-03T02:10:54;18.40;;;6.13;;
32501;SDS011;18952;52.516;13.460;2022-11-03T02:13:25;26.20;;;6.70;;
32501;SDS011;18952;52.516;13.460;2022-11-03T02:15:53;16.65;;;6.13;;
32501;SDS011;18952;52.516;13.460;2022-11-03T02:18:24;16.95;;;6.40;;
32501;SDS011;18952;52.516;13.460;2022-11-03T02:21:02;20.30;;;6.88;;
32501;SDS011;18952;52.516;13.460;2022-11-03T02:23:43;16.85;;;6.70;;
32501;SDS011;18952;52.516;13.460;2022-11-03T02:26:18;21.65;;;7.15;;
32501;SDS011;18952;52.516;13.460;2022-11-03T02:28:44;16.33;;;6.55;;
32501;SDS011;18952;52.516;13.460;2022-11-03T02:31:15;14.63;;;6.72;;
32501;SDS011;18952;52.516;13.460;2022-11-03T02:34:03;19.85;;;7.88;;
32501;SDS011;18952;52.516;13.460;2022-11-03T02:36:39;21.27;;;7.38;;
32501;SDS011;18952;52.516;13.460;2022-11-03T02:39:46;17.20;;;6.70;;
32501;SDS011;18952;52.516;13.460;2022-11-03T02:42:17;19.27;;;7.18;;
32501;SDS011;18952;52.516;13.460;2022-11-03T02:44:46;18.13;;;7.05;;
32501;SDS011;18952;52.516;13.460;2022-11-03T02:47:14;17.10;;;7.47;;
32501;SDS011;18952;52.516;13.460;2022-11-03T02:49:49;21.67;;;11.18;;
32501;SDS011;18952;52.516;13.460;2022-11-03T02:52:36;28.55;;;15.15;;
32501;SDS011;18952;52.516;13.460;2022-11-03T03:00:47;21.85;;;7.97;;
32501;SDS011;18952;52.516;13.460;2022-11-03T03:03:28;20.73;;;7.57;;
32501;SDS011;18952;52.516;13.460;2022-11-03T03:06:01;21.38;;;7.60;;
32501;SDS011;18952;52.516;13.460;2022-11-03T03:08:33;24.50;;;7.72;;
32501;SDS011;18952;52.516;13.460;2022-11-03T03:11:03;18.65;;;6.90;;
32501;SDS011;18952;52.516;13.460;2022-11-03T03:13:31;16.80;;;6.50;;
32501;SDS011;18952;52.516;13.460;2022-11-03T03:16:12;17.08;;;6.45;;
32501;SDS011;18952;52.516;13.460;2022-11-03T03:21:30;19.75;;;6.75;;
32501;SDS011;18952;52.516;13.460;2022-11-03T03:24:07;16.90;;;6.78;;
32501;SDS011;18952;52.516;13.460;2022-11-03T03:27:05;19.77;;;7.38;;
32501;SDS011;18952;52.516;13.460;2022-11-03T03:30:13;18.97;;;6.40;;
32501;SDS011;18952;52.516;13.460;2022-11-03T03:32:35;19.70;;;6.70;;
32501;SDS011;18952;52.516;13.460;2022-11-03T03:35:05;20.92;;;6.50;;
32501;SDS011;18952;52.516;13.460;2022-11-03T03:37:35;16.40;;;6.70;;
32501;SDS011;18952;52.516;13.460;2022-11-03T03:40:05;20.88;;;7.13;;
32501;SDS011;18952;52.516;13.460;2022-11-03T03:42:35;15.18;;;6.63;;
32501;SDS011;18952;52.516;13.460;2022-11-03T03:45:04;15.50;;;6.38;;
32501;SDS011;18952;52.516;13.460;2022-11-03T03:47:33;18.30;;;6.10;;
32501;SDS011;18952;52.516;13.460;2022-11-03T03:50:00;16.15;;;6.10;;
32501;SDS011;18952;52.516;13.460;2022-11-03T03:52:28;16.83;;;6.25;;
32501;SDS011;18952;52.516;13.460;2022-11-03T03:54:55;16.70;;;6.88;;
32501;SDS011;18952;52.516;13.460;2022-11-03T03:57:22;19.83;;;6.70;;
32501;SDS011;18952;52.516;13.460;2022-11-03T03:59:50;16.48;;;6.40;;
32501;SDS011;18952;52.516;13.460;2022-11-03T04:02:17;15.80;;;7.03;;
32501;SDS011;18952;52.516;13.460;2022-11-03T04:04:44;19.70;;;7.47;;
32501;SDS011;18952;52.516;13.460;2022-11-03T04:07:11;16.58;;;7.03;;
32501;SDS011;18952;52.516;13.460;2022-11-03T04:09:38;17.33;;;7.07;;
32501;SDS011;18952;52.516;13.460;2022-11-03T04:12:06;14.38;;;6.60;;
32501;SDS011;18952;52.516;13.460;2022-11-03T04:14:33;15.63;;;6.07;;
32501;SDS011;18952;52.516;13.460;2022-11-03T04:17:00;20.23;;;7.18;;
32501;SDS011;18952;52.516;13.460;2022-11-03T04:19:27;21.50;;;7.22;;
32501;SDS011;18952;52.516;13.460;2022-11-03T04:21:53;22.67;;;7.22;;
32501;SDS011;18952;52.516;13.460;2022-11-03T04:24:20;18.52;;;7.32;;
32501;SDS011;18952;52.516;13.460;2022-11-03T04:26:47;17.48;;;6.97;;
32501;SDS011;18952;52.516;13.460;2022-11-03T04:29:14;16.08;;;6.75;;
32501;SDS011;18952;52.516;13.460;2022-11-03T04:31:40;16.42;;;6.75;;
32501;SDS011;18952;52.516;13.460;2022-11-03T04:34:09;19.77;;;7.03;;
32501;SDS011;18952;52.516;13.460;2022-11-03T04:36:37;17.02;;;6.70;;
32501;SDS011;18952;52.516;13.460;2022-11-03T04:39:12;15.35;;;6.95;;
32501;SDS011;18952;52.516;13.460;2022-11-03T04:41:44;20.25;;;7.00;;
32501;SDS011;18952;52.516;13.460;2022-11-03T04:44:14;20.70;;;6.82;;
32501;SDS011;18952;52.516;13.460;2022-11-03T04:46:41;17.23;;;6.97;;
32501;SDS011;18952;52.516;13.460;2022-11-03T04:49:10;18.70;;;6.82;;
32501;SDS011;18952;52.516;13.460;2022-11-03T04:51:41;19.08;;;7.38;;
32501;SDS011;18952;52.516;13.460;2022-11-03T04:54:18;21.50;;;7.35;;
32501;SDS011;18952;52.516;13.460;2022-11-03T04:56:48;17.52;;;6.95;;
32501;SDS011;18952;52.516;13.460;2022-11-03T04:59:15;20.08;;;7.43;;
32501;SDS011;18952;52.516;13.460;2022-11-03T05:01:42;19.10;;;7.22;;
32501;SDS011;18952;52.516;13.460;2022-11-03T05:04:11;13.38;;;6.70;;
32501;SDS011;18952;52.516;13.460;2022-11-03T05:06:40;17.50;;;7.40;;
32501;SDS011;18952;52.516;13.460;2022-11-03T05:09:17;20.15;;;7.45;;
32501;SDS011;18952;52.516;13.460;2022-11-03T05:11:50;16.38;;;7.07;;
32501;SDS011;18952;52.516;13.460;2022-11-03T05:14:24;16.85;;;6.68;;
32501;SDS011;18952;52.516;13.460;2022-11-03T05:16:53;19.02;;;7.03;;
32501;SDS011;18952;52.516;13.460;2022-11-03T05:19:33;15.48;;;6.90;;
32501;SDS011;18952;52.516;13.460;2022-11-03T05:22:04;20.65;;;8.05;;
32501;SDS011;18952;52.516;13.460;2022-11-03T05:24:35;20.63;;;7.82;;
32501;SDS011;18952;52.516;13.460;2022-11-03T05:27:02;15.88;;;6.90;;
32501;SDS011;18952;52.516;13.460;2022-11-03T05:29:34;19.90;;;6.68;;
32501;SDS011;18952;52.516;13.460;2022-11-03T05:32:17;13.13;;;6.70;;
32501;SDS011;18952;52.516;13.460;2022-11-03T05:34:51;18.17;;;7.55;;
32501;SDS011;18952;52.516;13.460;2022-11-03T05:37:27;20.63;;;7.18;;
32501;SDS011;18952;52.516;13.460;2022-11-03T05:39:59;22.20;;;8.32;;
32501;SDS011;18952;52.516;13.460;2022-11-03T05:42:36;20.20;;;7.63;;
32501;SDS011;18952;52.516;13.460;2022-11-03T05:45:22;20.30;;;7.40;;
32501;SDS011;18952;52.516;13.460;2022-11-03T05:47:52;22.30;;;7.25;;
32501;SDS011;18952;52.516;13.460;2022-11-03T05:52:55;20.95;;;7.03;;
32501;SDS011;18952;52.516;13.460;2022-11-03T05:57:57;19.98;;;7.00;;
32501;SDS011;18952;52.516;13.460;2022-11-03T06:00:31;18.77;;;7.40;;
32501;SDS011;18952;52.516;13.460;2022-11-03T06:03:02;30.15;;;7.90;;
32501;SDS011;18952;52.516;13.460;2022-11-03T06:05:31;17.27;;;7.15;;
32501;SDS011;18952;52.516;13.460;2022-11-03T06:07:59;19.25;;;7.30;;
32501;SDS011;18952;52.516;13.460;2022-11-03T06:10:30;17.63;;;7.63;;
32501;SDS011;18952;52.516;13.460;2022-11-03T06:13:06;35.72;;;10.55;;
32501;SDS011;18952;52.516;13.460;2022-11-03T06:15:39;16.45;;;7.30;;
32501;SDS011;18952;52.516;13.460;2022-11-03T06:18:13;18.58;;;7.63;;
32501;SDS011;18952;52.516;13.460;2022-11-03T06:20:47;15.65;;;7.13;;
32501;SDS011;18952;52.516;13.460;2022-11-03T06:23:17;16.83;;;7.63;;
32501;SDS011;18952;52.516;13.460;2022-11-03T06:25:44;27.50;;;8.82;;
32501;SDS011;18952;52.516;13.460;2022-11-03T06:28:19;21.75;;;8.32;;
32501;SDS011;18952;52.516;13.460;2022-11-03T06:30:50;28.05;;;8.27;;
32501;SDS011;18952;52.516;13.460;2022-11-03T06:33:18;19.80;;;7.60;;
32501;SDS011;18952;52.516;13.460;2022-11-03T06:35:48;23.77;;;7.60;;
32501;SDS011;18952;52.516;13.460;2022-11-03T06:38:17;24.02;;;8.10;;
32501;SDS011;18952;52.516;13.460;2022-11-03T06:40:48;19.83;;;8.48;;
32501;SDS011;18952;52.516;13.460;2022-11-03T06:43:20;23.98;;;8.75;;
32501;SDS011;18952;52.516;13.460;2022-11-03T06:45:58;22.05;;;8.90;;
32501;SDS011;18952;52.516;13.460;2022-11-03T06:48:36;25.60;;;8.07;;
32501;SDS011;18952;52.516;13.460;2022-11-03T06:51:11;21.75;;;8.48;;
32501;SDS011;18952;52.516;13.460;2022-11-03T06:53:42;25.30;;;8.68;;
32501;SDS011;18952;52.516;13.460;2022-11-03T06:56:17;30.73;;;9.27;;
32501;SDS011;18952;52.516;13.460;2022-11-03T06:58:47;30.93;;;9.33;;
32501;SDS011;18952;52.516;13.460;2022-11-03T07:01:17;25.48;;;9.88;;
32501;SDS011;18952;52.516;13.460;2022-11-03T07:03:48;27.08;;;9.80;;
32501;SDS011;18952;52.516;13.460;2022-11-03T07:06:20;25.80;;;11.45;;
32501;SDS011;18952;52.516;13.460;2022-11-03T07:08:54;36.45;;;12.60;;
32501;SDS011;18952;52.516;13.460;2022-11-03T07:11:27;27.73;;;10.70;;
32501;SDS011;18952;52.516;13.460;2022-11-03T07:14:15;27.17;;;9.90;;
32501;SDS011;18952;52.516;13.460;2022-11-03T07:16:46;34.67;;;10.02;;
32501;SDS011;18952;52.516;13.460;2022-11-03T07:19:37;27.05;;;9.20;;
32501;SDS011;18952;52.516;13.460;2022-11-03T07:25:00;25.80;;;10.80;;
32501;SDS011;18952;52.516;13.460;2022-11-03T07:27:37;31.50;;;9.20;;
32501;SDS011;18952;52.516;13.460;2022-11-03T07:32:38;27.02;;;8.55;;
32501;SDS011;18952;52.516;13.460;2022-11-03T07:37:44;21.38;;;7.88;;
32501;SDS011;18952;52.516;13.460;2022-11-03T07:40:13;24.20;;;10.82;;
32501;SDS011;18952;52.516;13.460;2022-11-03T07:42:42;23.20;;;8.48;;
32501;SDS011;18952;52.516;13.460;2022-11-03T07:45:29;20.98;;;7.97;;
32501;SDS011;18952;52.516;13.460;2022-11-03T07:48:21;18.67;;;7.22;;
32501;SDS011;18952;52.516;13.460;2022-11-03T07:50:55;22.60;;;8.40;;
32501;SDS011;18952;52.516;13.460;2022-11-03T07:53:34;24.02;;;8.10;;
32501;SDS011;18952;52.516;13.460;2022-11-03T07:56:14;25.08;;;8.10;;
32501;SDS011;18952;52.516;13.460;2022-11-03T07:59:31;23.85;;;8.13;;
32501;SDS011;18952;52.516;13.460;2022-11-03T08:01:52;21.53;;;7.80;;
32501;SDS011;18952;52.516;13.460;2022-11-03T08:06:47;27.30;;;7.45;;
32501;SDS011;18952;52.516;13.460;2022-11-03T08:09:14;17.70;;;7.80;;
32501;SDS011;18952;52.516;13.460;2022-11-03T08:11:41;25.80;;;8.07;;
32501;SDS011;18952;52.516;13.460;2022-11-03T08:14:08;22.00;;;7.55;;
32501;SDS011;18952;52.516;13.460;2022-11-03T08:16:35;20.30;;;7.15;;
32501;SDS011;18952;52.516;13.460;2022-11-03T08:19:02;29.40;;;7.80;;
32501;SDS011;18952;52.516;13.460;2022-11-03T08:21:29;22.10;;;7.90;;
32501;SDS011;18952;52.516;13.460;2022-11-03T08:23:55;25.20;;;9.25;;
32501;SDS011;18952;52.516;13.460;2022-11-03T08:26:22;27.10;;;7.70;;
32501;SDS011;18952;52.516;13.460;2022-11-03T08:28:49;22.58;;;7.47;;
32501;SDS011;18952;52.516;13.460;2022-11-03T08:31:17;18.23;;;7.10;;
32501;SDS011;18952;52.516;13.460;2022-11-03T08:33:45;20.42;;;7.38;;
32501;SDS011;18952;52.516;13.460;2022-11-03T08:36:13;33.00;;;8.07;;
32501;SDS011;18952;52.516;13.460;2022-11-03T08:38:40;20.98;;;6.78;;
32501;SDS011;18952;52.516;13.460;2022-11-03T08:41:07;27.05;;;7.53;;
32501;SDS011;18952;52.516;13.460;2022-11-03T08:43:34;17.05;;;7.03;;
32501;SDS011;18952;52.516;13.460;2022-11-03T08:46:00;22.55;;;6.15;;
32501;SDS011;18952;52.516;13.460;2022-11-03T08:48:38;19.95;;;6.35;;
32501;SDS011;18952;52.516;13.460;2022-11-03T08:51:05;24.30;;;7.07;;
32501;SDS011;18952;52.516;13.460;2022-11-03T08:53:31;21.27;;;6.13;;
32501;SDS011;18952;52.516;13.460;2022-11-03T08:55:58;17.23;;;5.43;;
32501;SDS011;18952;52.516;13.460;2022-11-03T08:58:25;12.65;;;5.03;;
32501;SDS011;18952;52.516;13.460;2022-11-03T09:00:52;16.15;;;5.35;;
32501;SDS011;18952;52.516;13.460;2022-11-03T09:03:18;15.90;;;5.35;;
32501;SDS011;18952;52.516;13.460;2022-11-03T09:05:45;18.63;;;4.72;;
32501;SDS011;18952;52.516;13.460;2022-11-03T09:08:12;27.67;;;6.45;;
32501;SDS011;18952;52.516;13.460;2022-11-03T09:10:59;14.30;;;4.95;;
32501;SDS011;18952;52.516;13.460;2022-11-03T09:13:25;19.00;;;5.05;;
32501;SDS011;18952;52.516;13.460;2022-11-03T09:15:52;18.30;;;4.78;;
32501;SDS011;18952;52.516;13.460;2022-11-03T09:18:19;17.05;;;5.22;;
32501;SDS011;18952;52.516;13.460;2022-11-03T09:20:46;14.93;;;4.53;;
32501;SDS011;18952;52.516;13.460;2022-11-03T09:23:12;18.13;;;4.85;;
32501;SDS011;18952;52.516;13.460;2022-11-03T09:25:39;22.60;;;5.10;;
32501;SDS011;18952;52.516;13.460;2022-11-03T09:28:06;17.55;;;4.90;;
32501;SDS011;18952;52.516;13.460;2022-11-03T09:30:33;19.50;;;9.43;;
32501;SDS011;18952;52.516;13.460;2022-11-03T09:33:03;14.00;;;4.32;;
32501;SDS011;18952;52.516;13.460;2022-11-03T09:35:30;17.05;;;5.30;;
32501;SDS011;18952;52.516;13.460;2022-11-03T09:37:56;17.27;;;5.95;;
32501;SDS011;18952;52.516;13.460;2022-11-03T09:40:23;23.65;;;5.38;;
32501;SDS011;18952;52.516;13.460;2022-11-03T09:42:50;23.42;;;5.55;;
32501;SDS011;18952;52.516;13.460;2022-11-03T09:45:17;14.63;;;4.82;;
32501;SDS011;18952;52.516;13.460;2022-11-03T09:47:44;18.92;;;4.40;;
32501;SDS011;18952;52.516;13.460;2022-11-03T09:50:15;16.77;;;4.82;;
32501;SDS011;18952;52.516;13.460;2022-11-03T09:52:44;16.73;;;4.95;;
32501;SDS011;18952;52.516;13.460;2022-11-03T09:55:18;16.42;;;5.00;;
32501;SDS011;18952;52.516;13.460;2022-11-03T09:57:51;14.88;;;4.28;;
32501;SDS011;18952;52.516;13.460;2022-11-03T10:00:20;15.50;;;4.40;;
32501;SDS011;18952;52.516;13.460;2022-11-03T10:02:48;46.28;;;9.23;;
32501;SDS011;18952;52.516;13.460;2022-11-03T10:05:18;12.20;;;4.18;;
32501;SDS011;18952;52.516;13.460;2022-11-03T10:07:49;16.13;;;4.07;;
32501;SDS011;18952;52.516;13.460;2022-11-03T10:10:28;12.95;;;4.00;;
32501;SDS011;18952;52.516;13.460;2022-11-03T10:12:56;14.63;;;4.80;;
32501;SDS011;18952;52.516;13.460;2022-11-03T10:15:24;18.35;;;3.88;;
32501;SDS011;18952;52.516;13.460;2022-11-03T10:17:52;14.70;;;4.20;;
32501;SDS011;18952;52.516;13.460;2022-11-03T10:20:21;18.02;;;4.32;;
32501;SDS011;18952;52.516;13.460;2022-11-03T10:22:52;22.08;;;4.55;;
32501;SDS011;18952;52.516;13.460;2022-11-03T10:31:04;17.33;;;4.57;;
32501;SDS011;18952;52.516;13.460;2022-11-03T10:33:51;18.20;;;6.78;;
32501;SDS011;18952;52.516;13.460;2022-11-03T10:38:52;15.95;;;4.88;;
32501;SDS011;18952;52.516;13.460;2022-11-03T10:41:27;17.58;;;4.10;;
32501;SDS011;18952;52.516;13.460;2022-11-03T10:46:25;13.95;;;3.92;;
32501;SDS011;18952;52.516;13.460;2022-11-03T10:49:13;13.77;;;4.03;;
32501;SDS011;18952;52.516;13.460;2022-11-03T10:51:42;16.42;;;3.90;;
32501;SDS011;18952;52.516;13.460;2022-11-03T10:54:13;13.13;;;4.38;;
32501;SDS011;18952;52.516;13.460;2022-11-03T10:56:41;23.23;;;4.55;;
32501;SDS011;18952;52.516;13.460;2022-11-03T10:59:29;14.82;;;3.95;;
32501;SDS011;18952;52.516;13.460;2022-11-03T11:01:58;14.07;;;4.10;;
32501;SDS011;18952;52.516;13.460;2022-11-03T11:04:26;14.93;;;3.92;;
32501;SDS011;18952;52.516;13.460;2022-11-03T11:06:53;16.45;;;4.45;;
32501;SDS011;18952;52.516;13.460;2022-11-03T11:09:24;15.63;;;4.50;;
32501;SDS011;18952;52.516;13.460;2022-11-03T11:15:01;13.48;;;3.92;;
32501;SDS011;18952;52.516;13.460;2022-11-03T11:17:38;15.18;;;4.20;;
32501;SDS011;18952;52.516;13.460;2022-11-03T11:20:31;15.48;;;4.20;;
32501;SDS011;18952;52.516;13.460;2022-11-03T11:29:32;16.80;;;4.57;;
32501;SDS011;18952;52.516;13.460;2022-11-03T11:34:58;14.38;;;4.20;;
32501;SDS011;18952;52.516;13.460;2022-11-03T11:39:52;18.65;;;4.43;;
32501;SDS011;18952;52.516;13.460;2022-11-03T11:42:19;25.00;;;5.45;;
32501;SDS011;18952;52.516;13.460;2022-11-03T11:44:47;12.52;;;4.55;;
32501;SDS011;18952;52.516;13.460;2022-11-03T11:47:25;20.98;;;4.90;;
32501;SDS011;18952;52.516;13.460;2022-11-03T11:50:18;15.23;;;4.43;;
32501;SDS011;18952;52.516;13.460;2022-11-03T11:55:33;13.88;;;4.45;;
32501;SDS011;18952;52.516;13.460;2022-11-03T11:58:01;15.57;;;4.80;;
32501;SDS011;18952;52.516;13.460;2022-11-03T12:00:30;15.77;;;4.38;;
32501;SDS011;18952;52.516;13.460;2022-11-03T12:03:00;16.88;;;4.45;;
32501;SDS011;18952;52.516;13.460;2022-11-03T12:05:32;15.57;;;4.40;;
32501;SDS011;18952;52.516;13.460;2022-11-03T12:08:00;13.70;;;4.90;;
32501;SDS011;18952;52.516;13.460;2022-11-03T12:10:30;13.95;;;4.35;;
32501;SDS011;18952;52.516;13.460;2022-11-03T12:12:58;18.20;;;4.35;;
32501;SDS011;18952;52.516;13.460;2022-11-03T12:21:43;10.77;;;4.00;;
32501;SDS011;18952;52.516;13.460;2022-11-03T12:24:25;20.42;;;5.88;;
32501;SDS011;18952;52.516;13.460;2022-11-03T12:26:52;14.63;;;4.20;;
32501;SDS011;18952;52.516;13.460;2022-11-03T12:29:18;13.88;;;4.75;;
32501;SDS011;18952;52.516;13.460;2022-11-03T12:31:45;13.30;;;4.88;;
32501;SDS011;18952;52.516;13.460;2022-11-03T12:34:12;16.38;;;4.65;;
32501;SDS011;18952;52.516;13.460;2022-11-03T12:36:39;17.35;;;4.65;;
32501;SDS011;18952;52.516;13.460;2022-11-03T12:39:06;14.93;;;4.30;;
32501;SDS011;18952;52.516;13.460;2022-11-03T12:41:45;14.80;;;4.70;;
32501;SDS011;18952;52.516;13.460;2022-11-03T12:44:13;19.98;;;5.40;;
32501;SDS011;18952;52.516;13.460;2022-11-03T12:46:40;20.30;;;5.28;;
32501;SDS011;18952;52.516;13.460;2022-11-03T12:49:06;14.48;;;4.82;;
32501;SDS011;18952;52.516;13.460;2022-11-03T12:51:33;14.20;;;4.97;;
32501;SDS011;18952;52.516;13.460;2022-11-03T12:54:00;12.48;;;4.90;;
32501;SDS011;18952;52.516;13.460;2022-11-03T12:56:27;14.48;;;4.75;;
32501;SDS011;18952;52.516;13.460;2022-11-03T12:58:53;16.13;;;4.40;;
32501;SDS011;18952;52.516;13.460;2022-11-03T13:01:20;15.43;;;4.22;;
32501;SDS011;18952;52.516;13.460;2022-11-03T13:03:47;14.68;;;4.85;;
32501;SDS011;18952;52.516;13.460;2022-11-03T13:06:14;15.07;;;4.63;;
32501;SDS011;18952;52.516;13.460;2022-11-03T13:08:41;11.95;;;4.10;;
32501;SDS011;18952;52.516;13.460;2022-11-03T13:11:07;18.60;;;4.45;;
32501;SDS011;18952;52.516;13.460;2022-11-03T13:13:34;15.68;;;4.95;;
32501;SDS011;18952;52.516;13.460;2022-11-03T13:16:09;11.80;;;3.90;;
32501;SDS011;18952;52.516;13.460;2022-11-03T13:18:36;11.90;;;4.03;;
32501;SDS011;18952;52.516;13.460;2022-11-03T13:21:02;13.43;;;4.35;;
32501;SDS011;18952;52.516;13.460;2022-11-03T13:23:29;13.32;;;4.50;;
32501;SDS011;18952;52.516;13.460;2022-11-03T13:25:56;14.48;;;4.30;;
32501;SDS011;18952;52.516;13.460;2022-11-03T13:28:23;15.60;;;4.72;;
32501;SDS011;18952;52.516;13.460;2022-11-03T13:30:50;14.32;;;4.53;;
32501;SDS011;18952;52.516;13.460;2022-11-03T13:33:17;12.20;;;4.60;;
32501;SDS011;18952;52.516;13.460;2022-11-03T13:35:45;17.48;;;5.03;;
32501;SDS011;18952;52.516;13.460;2022-11-03T13:38:12;11.95;;;4.45;;
32501;SDS011;18952;52.516;13.460;2022-11-03T13:40:39;20.40;;;4.22;;
32501;SDS011;18952;52.516;13.460;2022-11-03T13:43:26;11.27;;;4.00;;
32501;SDS011;18952;52.516;13.460;2022-11-03T13:45:53;18.42;;;4.50;;
32501;SDS011;18952;52.516;13.460;2022-11-03T13:48:20;16.77;;;5.22;;
32501;SDS011;18952;52.516;13.460;2022-11-03T13:51:06;17.10;;;5.25;;
32501;SDS011;18952;52.516;13.460;2022-11-03T13:53:33;19.20;;;4.95;;
32501;SDS011;18952;52.516;13.460;2022-11-03T13:56:20;17.27;;;5.05;;
32501;SDS011;18952;52.516;13.460;2022-11-03T13:58:49;14.10;;;4.38;;
32501;SDS011;18952;52.516;13.460;2022-11-03T14:01:36;14.18;;;4.57;;
32501;SDS011;18952;52.516;13.460;2022-11-03T14:04:04;12.88;;;4.28;;
32501;SDS011;18952;52.516;13.460;2022-11-03T14:06:51;13.98;;;4.40;;
32501;SDS011;18952;52.516;13.460;2022-11-03T14:09:19;15.85;;;4.70;;
32501;SDS011;18952;52.516;13.460;2022-11-03T14:11:51;16.95;;;4.13;;
32501;SDS011;18952;52.516;13.460;2022-11-03T14:14:17;11.52;;;4.65;;
32501;SDS011;18952;52.516;13.460;2022-11-03T14:16:44;13.57;;;4.10;;
32501;SDS011;18952;52.516;13.460;2022-11-03T14:19:11;12.18;;;3.80;;
32501;SDS011;18952;52.516;13.460;2022-11-03T14:21:38;13.75;;;4.28;;
32501;SDS011;18952;52.516;13.460;2022-11-03T14:24:05;12.80;;;4.32;;
32501;SDS011;18952;52.516;13.460;2022-11-03T14:26:32;11.63;;;4.45;;
32501;SDS011;18952;52.516;13.460;2022-11-03T14:29:08;15.18;;;4.70;;
32501;SDS011;18952;52.516;13.460;2022-11-03T14:31:35;15.85;;;4.30;;
32501;SDS011;18952;52.516;13.460;2022-11-03T14:34:02;16.60;;;4.80;;
32501;SDS011;18952;52.516;13.460;2022-11-03T14:36:29;12.60;;;4.30;;
32501;SDS011;18952;52.516;13.460;2022-11-03T14:38:56;14.95;;;4.18;;
32501;SDS011;18952;52.516;13.460;2022-11-03T14:41:23;15.00;;;4.70;;
32501;SDS011;18952;52.516;13.460;2022-11-03T14:43:49;12.13;;;4.35;;
32501;SDS011;18952;52.516;13.460;2022-11-03T14:46:16;17.80;;;5.68;;
32501;SDS011;18952;52.516;13.460;2022-11-03T14:48:43;16.02;;;5.72;;
32501;SDS011;18952;52.516;13.460;2022-11-03T14:51:10;13.00;;;4.15;;
32501;SDS011;18952;52.516;13.460;2022-11-03T14:53:37;19.58;;;4.75;;
32501;SDS011;18952;52.516;13.460;2022-11-03T14:56:03;13.32;;;5.00;;
32501;SDS011;18952;52.516;13.460;2022-11-03T14:58:30;12.50;;;4.60;;
32501;SDS011;18952;52.516;13.460;2022-11-03T15:00:57;17.63;;;5.30;;
32501;SDS011;18952;52.516;13.460;2022-11-03T15:03:25;15.75;;;5.30;;
32501;SDS011;18952;52.516;13.460;2022-11-03T15:05:51;13.00;;;5.30;;
32501;SDS011;18952;52.516;13.460;2022-11-03T15:08:18;19.23;;;5.90;;
32501;SDS011;18952;52.516;13.460;2022-11-03T15:10:45;17.48;;;6.15;;
32501;SDS011;18952;52.516;13.460;2022-11-03T15:13:13;17.85;;;5.70;;
32501;SDS011;18952;52.516;13.460;2022-11-03T15:15:41;17.98;;;4.95;;
32501;SDS011;18952;52.516;13.460;2022-11-03T15:18:08;17.70;;;6.55;;
32501;SDS011;18952;52.516;13.460;2022-11-03T15:20:35;18.85;;;5.45;;
32501;SDS011;18952;52.516;13.460;2022-11-03T15:23:02;15.68;;;5.10;;
32501;SDS011;18952;52.516;13.460;2022-11-03T15:25:53;18.02;;;6.05;;
32501;SDS011;18952;52.516;13.460;2022-11-03T15:28:20;19.77;;;5.40;;
32501;SDS011;18952;52.516;13.460;2022-11-03T15:30:47;19.60;;;5.50;;
32501;SDS011;18952;52.516;13.460;2022-11-03T15:33:14;21.92;;;5.53;;
32501;SDS011;18952;52.516;13.460;2022-11-03T15:35:41;17.88;;;5.82;;
32501;SDS011;18952;52.516;13.460;2022-11-03T15:38:07;16.83;;;6.30;;
32501;SDS011;18952;52.516;13.460;2022-11-03T15:40:35;18.05;;;6.20;;